MiSS Sarah — WDD9129 — position and weather

sailwx.info

Track history (hours):
 
Tides and Currents Weather Stations Pressure Air Temp Water Temp Dewpoint Dewpoint Depression Visibility Wind Speed Wind Dir Waves Ship Positions

MiSS Sarah

Owner: Whaley, Lloyd D, Brookings, OR. More information available from US FCC via Universal Licensing System and Coast Guard Vessel Documentation Center.

Last reported at 2017-Oct-17 12:39 UTC. Time now 2017-Oct-20 03:08 UTC.
Position N 44°49' W 124°08'.

Length 33 m.

Type: Fishing. MMSI: 368206000.

Date/timePositionNaut miles runAvg speedWind from/ knotsBaromVisibWave heightAir tempDewpointWater temp
2017-Oct-17 12:39N 44°49' W 124°08'8 9.7
2017-Oct-17 11:49N 44°57' W 124°06'310.1
2017-Oct-17 11:30N 45°01' W 124°05'610.0
2017-Oct-17 10:55N 45°06' W 124°04'4 9.5
2017-Oct-17 10:30N 45°10' W 124°04'5 9.6
2017-Oct-17 10:00N 45°15' W 124°06'5 9.4
2017-Oct-17 09:30N 45°20' W 124°07'5 9.6
2017-Oct-17 09:01N 45°24' W 124°07'5 9.6
2017-Oct-17 08:30N 45°29' W 124°08'5 9.6
2017-Oct-17 08:01N 45°34' W 124°08'5 9.8
2017-Oct-17 07:31N 45°39' W 124°08'510.1
2017-Oct-17 07:01N 45°44' W 124°08'510.0
2017-Oct-17 06:31N 45°49' W 124°07'510.0
2017-Oct-17 06:01N 45°54' W 124°07'5 9.9
2017-Oct-17 05:31N 45°59' W 124°07'5 9.8
2017-Oct-17 05:01N 46°04' W 124°07'5 9.4
2017-Oct-17 04:31N 46°09' W 124°07'5 9.2
2017-Oct-17 04:01N 46°13' W 124°06'4 7.2
2017-Oct-17 03:31N 46°15' W 124°02'4 8.3
2017-Oct-17 03:01N 46°13' W 123°57'4 8.0
2017-Oct-17 02:31N 46°11' W 123°52'0 0.0
2017-Oct-17 02:00N 46°11' W 123°52'0 0.0
2017-Oct-17 01:31N 46°11' W 123°52'0 0.0
2017-Oct-17 01:01N 46°11' W 123°52'0 0.0
2017-Oct-17 00:30N 46°11' W 123°52'0 0.0
2017-Oct-17 00:01N 46°11' W 123°52'0 0.0
2017-Oct-16 23:31N 46°11' W 123°52'0 0.0
2017-Oct-16 23:01N 46°11' W 123°52'0 0.0
2017-Oct-16 22:30N 46°11' W 123°52'0 0.0
2017-Oct-16 22:01N 46°11' W 123°52'0 0.0
2017-Oct-16 21:31N 46°11' W 123°52'0 0.0
2017-Oct-16 21:01N 46°11' W 123°52'0 0.1
2017-Oct-16 20:31N 46°11' W 123°52'0 0.0
2017-Oct-16 20:00N 46°11' W 123°52'0 0.0
2017-Oct-16 19:30N 46°11' W 123°52'1 2.2
2017-Oct-16 19:01N 46°12' W 123°50'0 0.0
2017-Oct-16 18:31N 46°12' W 123°50'4 7.1
2017-Oct-16 18:01N 46°12' W 123°55'510.5
2017-Oct-16 17:31N 46°15' W 124°01'4 8.8
2017-Oct-16 17:01N 46°13' W 124°06'5 9.2
2017-Oct-16 16:31N 46°08' W 124°07'4 8.8
2017-Oct-16 16:01N 46°04' W 124°07'4 8.6
2017-Oct-16 15:31N 45°60' W 124°08'4 8.6
2017-Oct-16 15:01N 45°55' W 124°08'8 8.4
2017-Oct-16 14:00N 45°47' W 124°09'4 8.2
2017-Oct-16 13:31N 45°43' W 124°10'4 8.0
2017-Oct-16 13:01N 45°39' W 124°10'4 8.3
2017-Oct-16 12:31N 45°35' W 124°10'4 8.6
2017-Oct-16 12:00N 45°30' W 124°11'4 8.8
2017-Oct-16 11:31N 45°26' W 124°11'4 8.7
2017-Oct-16 11:01N 45°22' W 124°11'4 8.7
2017-Oct-16 10:30N 45°17' W 124°12'4 8.8
2017-Oct-16 10:00N 45°13' W 124°12'4 8.6
2017-Oct-16 09:31N 45°09' W 124°12'4 8.4
2017-Oct-16 09:00N 45°04' W 124°13'4 8.2
2017-Oct-16 08:30N 45°00' W 124°13'56 8.0
2017-Oct-16 01:26N 44°06' W 124°37'3 8.3
2017-Oct-16 01:01N 44°03' W 124°39'5 8.5
2017-Oct-16 00:28N 43°59' W 124°41'8 3.0
2017-Oct-15 21:39N 43°52' W 124°48'1 6.4
2017-Oct-15 21:31N 43°52' W 124°49'0 0.9
2017-Oct-15 21:00N 43°52' W 124°49'1 2.2
2017-Oct-15 20:29N 43°52' W 124°51'64 5.0
2017-Oct-15 07:45N 44°56' W 124°38'310.1
2017-Oct-15 07:28N 44°58' W 124°37'510.1
2017-Oct-15 06:59N 45°03' W 124°35'510.2
2017-Oct-15 06:30N 45°08' W 124°33'5 9.8
2017-Oct-15 06:00N 45°13' W 124°32'510.6
2017-Oct-15 05:30N 45°18' W 124°30'510.9
2017-Oct-15 05:00N 45°23' W 124°28'611.1
2017-Oct-15 04:31N 45°28' W 124°25'610.9
2017-Oct-15 04:00N 45°34' W 124°23'510.7
2017-Oct-15 03:31N 45°39' W 124°21'510.7
2017-Oct-15 03:01N 45°44' W 124°19'510.4
2017-Oct-15 02:30N 45°49' W 124°17'8 9.9
2017-Oct-15 01:41N 45°57' W 124°14'310.0
2017-Oct-15 01:20N 46°00' W 124°12'3 9.8
2017-Oct-15 01:01N 46°03' W 124°11'5 9.4
2017-Oct-15 00:31N 46°08' W 124°09'5 9.2
2017-Oct-15 00:01N 46°12' W 124°07'4 8.9
2017-Oct-14 23:31N 46°15' W 124°03'711.1
2017-Oct-14 22:53N 46°11' W 123°55'2 5.0
2017-Oct-14 22:31N 46°11' W 123°52'0 0.0
2017-Oct-14 22:00N 46°11' W 123°52'0 0.0
2017-Oct-14 21:31N 46°11' W 123°52'0 0.0
2017-Oct-14 21:00N 46°11' W 123°52'0 0.0
2017-Oct-14 20:30N 46°11' W 123°52'0 0.0
2017-Oct-14 20:01N 46°11' W 123°52'0 0.0
2017-Oct-14 19:31N 46°11' W 123°52'0 0.0
2017-Oct-14 19:01N 46°11' W 123°52'0 0.0
2017-Oct-14 18:30N 46°11' W 123°52'0 0.0
2017-Oct-14 18:00N 46°11' W 123°52'0 0.0
2017-Oct-14 17:30N 46°11' W 123°52'1 2.3
2017-Oct-14 17:00N 46°11' W 123°54'5 9.4
2017-Oct-14 16:31N 46°14' W 123°59'5 9.1
2017-Oct-14 16:01N 46°15' W 124°06'814.9
2017-Oct-14 15:30N 46°07' W 124°08'1 2.9
2017-Oct-14 15:01N 46°06' W 124°08'4 8.6
2017-Oct-14 14:31N 46°02' W 124°09'4 8.7
2017-Oct-14 14:01N 45°57' W 124°09'4 8.6
2017-Oct-14 13:31N 45°53' W 124°10'4 8.5
2017-Oct-14 13:01N 45°49' W 124°11'4 8.7
2017-Oct-14 12:31N 45°44' W 124°12'4 8.7
2017-Oct-14 12:01N 45°40' W 124°13'4 8.6
2017-Oct-14 11:30N 45°36' W 124°13'4 8.5
2017-Oct-14 11:00N 45°32' W 124°14'4 8.7
2017-Oct-14 10:31N 45°27' W 124°14'5 9.0
2017-Oct-14 10:00N 45°23' W 124°15'4 9.0
2017-Oct-14 09:30N 45°18' W 124°16'4 8.8
2017-Oct-14 09:01N 45°14' W 124°17'4 8.5
2017-Oct-14 08:30N 45°10' W 124°18'4 8.3
2017-Oct-14 08:00N 45°06' W 124°20'13 0.5
2017-Oct-13 04:20N 45°16' W 124°32'2 7.4
2017-Oct-13 04:00N 45°18' W 124°31'4 7.4
2017-Oct-13 03:30N 45°22' W 124°30'4 7.6
2017-Oct-13 03:00N 45°26' W 124°29'5 7.8
2017-Oct-13 02:21N 45°30' W 124°27'3 7.7
2017-Oct-13 02:01N 45°33' W 124°26'4 7.8
2017-Oct-13 01:31N 45°37' W 124°24'4 7.8
2017-Oct-13 01:00N 45°40' W 124°22'4 7.5
2017-Oct-13 00:31N 45°44' W 124°21'4 7.3
2017-Oct-13 00:01N 45°48' W 124°19'4 7.3
2017-Oct-12 23:31N 45°51' W 124°18'4 7.6
2017-Oct-12 23:00N 45°55' W 124°16'4 7.7
2017-Oct-12 22:31N 45°58' W 124°14'4 7.7
2017-Oct-12 22:01N 46°02' W 124°12'4 7.8
2017-Oct-12 21:31N 46°06' W 124°10'4 7.6
2017-Oct-12 21:01N 46°09' W 124°09'4 7.0
2017-Oct-12 20:31N 46°13' W 124°07'3 6.8
2017-Oct-12 20:01N 46°15' W 124°04'4 8.2
2017-Oct-12 19:31N 46°14' W 123°59'4 9.0
2017-Oct-12 19:01N 46°11' W 123°53'2 4.2
2017-Oct-12 18:31N 46°12' W 123°50'0 0.0
2017-Oct-12 18:00N 46°12' W 123°50'0 0.0
2017-Oct-12 17:30N 46°12' W 123°50'1 1.8
2017-Oct-12 16:56N 46°11' W 123°52'0 0.0
2017-Oct-12 16:31N 46°11' W 123°52'0 0.9
2017-Oct-12 16:01N 46°11' W 123°52'0 0.8
2017-Oct-12 15:31N 46°11' W 123°52'0 0.0
2017-Oct-12 15:01N 46°11' W 123°52'0 0.0
2017-Oct-12 14:31N 46°11' W 123°52'0 0.0
2017-Oct-12 13:52N 46°11' W 123°52'0 0.0
2017-Oct-12 13:30N 46°11' W 123°52'0 0.0
2017-Oct-12 12:55N 46°11' W 123°52'0 0.0
2017-Oct-12 12:30N 46°11' W 123°52'0 0.0
2017-Oct-12 11:53N 46°11' W 123°52'0 0.0
2017-Oct-12 11:31N 46°11' W 123°52'0 0.0
2017-Oct-12 10:57N 46°11' W 123°52'0 0.0
2017-Oct-12 10:31N 46°11' W 123°52'0 0.0
2017-Oct-12 09:51N 46°11' W 123°52'0 0.0
2017-Oct-12 09:31N 46°11' W 123°52'0 0.0
2017-Oct-12 08:56N 46°11' W 123°52'0 0.0
2017-Oct-12 08:30N 46°11' W 123°52'0 0.0
2017-Oct-12 07:43N 46°11' W 123°52'0 0.0
2017-Oct-12 07:30N 46°11' W 123°52'0 0.0
2017-Oct-12 07:00N 46°11' W 123°52'0 0.0
2017-Oct-12 06:30N 46°11' W 123°52'0 0.0
2017-Oct-12 06:01N 46°11' W 123°52'0 0.0
2017-Oct-12 05:26N 46°11' W 123°52'0 0.0
2017-Oct-12 05:01N 46°11' W 123°52'0 0.0
2017-Oct-12 04:31N 46°11' W 123°52'0 0.0
2017-Oct-12 04:01N 46°11' W 123°52'0 0.0
2017-Oct-12 03:31N 46°11' W 123°52'0 0.0
2017-Oct-12 03:01N 46°11' W 123°52'0 0.0
2017-Oct-12 02:31N 46°11' W 123°52'0 0.0
2017-Oct-12 02:01N 46°11' W 123°52'0 0.0
2017-Oct-12 01:31N 46°11' W 123°52'0 0.0
2017-Oct-12 01:01N 46°11' W 123°52'0 0.0
2017-Oct-12 00:31N 46°11' W 123°52'0 0.0
2017-Oct-11 23:50N 46°11' W 123°52'0 0.0
2017-Oct-11 23:31N 46°11' W 123°52'0 0.0
2017-Oct-11 23:01N 46°11' W 123°52'0 0.0
2017-Oct-11 22:20N 46°11' W 123°52'0 0.0
2017-Oct-11 21:58N 46°11' W 123°52'0 0.0
2017-Oct-11 21:31N 46°11' W 123°52'0 0.0
2017-Oct-11 21:01N 46°11' W 123°52'0 0.0
2017-Oct-11 20:31N 46°11' W 123°52'0 0.0
2017-Oct-11 20:01N 46°11' W 123°52'2 4.8
2017-Oct-11 19:30N 46°12' W 123°55'4 7.6
2017-Oct-11 19:00N 46°14' W 123°60'3 5.9
2017-Oct-11 18:31N 46°15' W 124°03'3 5.1
2017-Oct-11 18:01N 46°14' W 124°06'3 6.6
2017-Oct-11 17:31N 46°11' W 124°08'3 6.2
2017-Oct-11 17:01N 46°08' W 124°09'68 2.3
2017-Oct-10 11:18N 45°02' W 124°33'1 2.1
2017-Oct-10 10:58N 45°03' W 124°32'510.0
2017-Oct-10 10:30N 45°07' W 124°31'510.2
2017-Oct-10 10:00N 45°12' W 124°30'710.0
2017-Oct-10 09:18N 45°19' W 124°28'410.0
2017-Oct-10 08:51N 45°23' W 124°27'3 9.9
2017-Oct-10 08:31N 45°27' W 124°26'5 9.9
2017-Oct-10 08:00N 45°32' W 124°25'510.0
2017-Oct-10 07:31N 45°37' W 124°24'5 9.9
2017-Oct-10 07:00N 45°41' W 124°22'510.1
2017-Oct-10 06:30N 45°46' W 124°20'610.3
2017-Oct-10 05:56N 45°52' W 124°17'410.3
2017-Oct-10 05:31N 45°56' W 124°15'510.4
2017-Oct-10 05:01N 46°01' W 124°13'510.4
2017-Oct-10 04:30N 46°06' W 124°11'710.5
2017-Oct-10 03:51N 46°12' W 124°08'410.7
2017-Oct-10 03:30N 46°15' W 124°04'813.5
2017-Oct-10 02:56N 46°11' W 123°54'2 4.6
2017-Oct-10 02:31N 46°11' W 123°52'0 0.0
2017-Oct-10 02:01N 46°11' W 123°52'0 0.2
2017-Oct-10 01:11N 46°11' W 123°52'0 0.0
2017-Oct-10 01:00N 46°11' W 123°52'0 0.0
2017-Oct-10 00:30N 46°11' W 123°52'0 0.0
2017-Oct-10 00:01N 46°11' W 123°52'0 0.0
2017-Oct-09 23:30N 46°11' W 123°52'0 0.0
2017-Oct-09 23:00N 46°11' W 123°52'0 0.0
2017-Oct-09 22:31N 46°11' W 123°52'0 0.0
2017-Oct-09 22:01N 46°11' W 123°52'0 0.0
2017-Oct-09 21:30N 46°11' W 123°52'0 0.0
2017-Oct-09 21:00N 46°11' W 123°52'0 0.1
2017-Oct-09 20:30N 46°11' W 123°52'0 0.0
2017-Oct-09 20:00N 46°11' W 123°52'0 0.0
2017-Oct-09 19:30N 46°11' W 123°52'0 0.0
2017-Oct-09 19:00N 46°11' W 123°52'1 2.3
2017-Oct-09 18:30N 46°11' W 123°53'4 7.3
2017-Oct-09 18:01N 46°13' W 123°58'4 7.5
2017-Oct-09 17:30N 46°15' W 124°03'3 6.7
2017-Oct-09 17:00N 46°13' W 124°06'4 9.0
2017-Oct-09 16:31N 46°09' W 124°08'4 8.7
2017-Oct-09 16:01N 46°05' W 124°10'4 8.9
2017-Oct-09 15:30N 46°00' W 124°12'4 8.5
2017-Oct-09 15:00N 45°56' W 124°14'4 8.3
2017-Oct-09 14:30N 45°53' W 124°16'4 8.1
2017-Oct-09 14:00N 45°49' W 124°19'4 8.2
2017-Oct-09 13:30N 45°45' W 124°20'4 8.1
2017-Oct-09 13:00N 45°41' W 124°22'4 7.9
2017-Oct-09 12:30N 45°37' W 124°24'4 8.1
2017-Oct-09 12:00N 45°33' W 124°25'4 8.0
2017-Oct-09 11:30N 45°29' W 124°26'4 8.0
2017-Oct-09 10:59N 45°25' W 124°27'6 8.3
2017-Oct-09 10:13N 45°19' W 124°29'2 8.1
2017-Oct-09 10:00N 45°17' W 124°30'4 8.0
2017-Oct-09 09:30N 45°14' W 124°31'4 7.9
2017-Oct-09 09:01N 45°10' W 124°33'4 8.1
2017-Oct-09 08:30N 45°06' W 124°35'4 8.0
2017-Oct-09 08:00N 45°02' W 124°36'4 7.9
2017-Oct-09 07:30N 44°58' W 124°38'4 7.9
2017-Oct-09 06:59N 44°54' W 124°40'4 7.8
2017-Oct-09 06:30N 44°51' W 124°42'4 7.7
2017-Oct-09 05:59N 44°47' W 124°43'4 7.5
2017-Oct-09 05:30N 44°44' W 124°45'7 7.3
2017-Oct-09 04:35N 44°37' W 124°47'2 7.2
2017-Oct-09 04:21N 44°36' W 124°48'37 2.0
2017-Oct-08 10:18N 45°10' W 124°29'718.5
2017-Oct-08 09:57N 45°16' W 124°28'1 3.1
2017-Oct-08 09:30N 45°17' W 124°27'5 9.8
2017-Oct-08 09:00N 45°22' W 124°27'710.0
2017-Oct-08 08:20N 45°29' W 124°25'310.2
2017-Oct-08 08:01N 45°32' W 124°24'510.1
2017-Oct-08 07:30N 45°37' W 124°22'5 9.9
2017-Oct-08 07:00N 45°42' W 124°20'510.1
2017-Oct-08 06:30N 45°47' W 124°18'510.1
2017-Oct-08 06:00N 45°52' W 124°17'510.0
2017-Oct-08 05:30N 45°56' W 124°15'510.1
2017-Oct-08 05:00N 46°01' W 124°12'510.0
2017-Oct-08 04:30N 46°06' W 124°10'1 2.0
2017-Oct-08 04:00N 46°07' W 124°10'3 4.1
2017-Oct-08 03:20N 46°10' W 124°09'3 9.4
2017-Oct-08 03:00N 46°13' W 124°08'510.6
2017-Oct-08 02:30N 46°15' W 124°01'714.2
2017-Oct-08 02:00N 46°11' W 123°53'1 1.3
2017-Oct-08 01:30N 46°11' W 123°52'0 0.0
2017-Oct-08 00:58N 46°11' W 123°52'0 0.0
2017-Oct-08 00:30N 46°11' W 123°52'0 0.0
2017-Oct-08 00:00N 46°11' W 123°52'0 0.0
2017-Oct-07 23:31N 46°11' W 123°52'0 0.0
2017-Oct-07 23:00N 46°11' W 123°52'0 0.0
2017-Oct-07 22:31N 46°11' W 123°52'0 0.0
2017-Oct-07 22:00N 46°11' W 123°52'0 0.0
2017-Oct-07 21:31N 46°11' W 123°52'0 0.0
2017-Oct-07 21:00N 46°11' W 123°52'0 0.0
2017-Oct-07 20:30N 46°11' W 123°52'0 0.0
2017-Oct-07 20:00N 46°11' W 123°52'0 0.0
2017-Oct-07 19:30N 46°11' W 123°52'0 0.0
2017-Oct-07 19:00N 46°11' W 123°52'0 0.0
2017-Oct-07 18:30N 46°11' W 123°52'0 0.0
2017-Oct-07 18:00N 46°11' W 123°52'0 0.0
2017-Oct-07 17:30N 46°11' W 123°52'9 7.4
2017-Oct-07 16:21N 46°15' W 124°03'3 6.9
2017-Oct-07 15:59N 46°14' W 124°06'4 9.2
2017-Oct-07 15:30N 46°10' W 124°08'5 9.0
2017-Oct-07 15:00N 46°05' W 124°10'4 8.9
2017-Oct-07 14:30N 46°01' W 124°12'5 8.6
2017-Oct-07 13:58N 45°57' W 124°13'4 8.5
2017-Oct-07 13:30N 45°53' W 124°14'4 8.2
2017-Oct-07 13:00N 45°49' W 124°15'  
Track history (hours):
 
Tides and Currents Weather Stations Pressure Air Temp Water Temp Dewpoint Dewpoint Depression Visibility Wind Speed Wind Dir Waves Ship Positions

MiSS Sarah

Owner: Whaley, Lloyd D, Brookings, OR. More information available from US FCC via Universal Licensing System and Coast Guard Vessel Documentation Center.

Last reported at 2017-Oct-17 12:39 UTC. Time now 2017-Oct-20 03:08 UTC.
Position N 44°49' W 124°08'.

Length 33 m.

Type: Fishing. MMSI: 368206000.

Date/timePositionNaut miles runAvg speedWind from/ knotsBaromVisibWave heightAir tempDewpointWater temp
2017-Oct-17 12:39N 44°49' W 124°08'8 9.7
2017-Oct-17 11:49N 44°57' W 124°06'310.1
2017-Oct-17 11:30N 45°01' W 124°05'610.0
2017-Oct-17 10:55N 45°06' W 124°04'4 9.5
2017-Oct-17 10:30N 45°10' W 124°04'5 9.6
2017-Oct-17 10:00N 45°15' W 124°06'5 9.4
2017-Oct-17 09:30N 45°20' W 124°07'5 9.6
2017-Oct-17 09:01N 45°24' W 124°07'5 9.6
2017-Oct-17 08:30N 45°29' W 124°08'5 9.6
2017-Oct-17 08:01N 45°34' W 124°08'5 9.8
2017-Oct-17 07:31N 45°39' W 124°08'510.1
2017-Oct-17 07:01N 45°44' W 124°08'510.0
2017-Oct-17 06:31N 45°49' W 124°07'510.0
2017-Oct-17 06:01N 45°54' W 124°07'5 9.9
2017-Oct-17 05:31N 45°59' W 124°07'5 9.8
2017-Oct-17 05:01N 46°04' W 124°07'5 9.4
2017-Oct-17 04:31N 46°09' W 124°07'5 9.2
2017-Oct-17 04:01N 46°13' W 124°06'4 7.2
2017-Oct-17 03:31N 46°15' W 124°02'4 8.3
2017-Oct-17 03:01N 46°13' W 123°57'4 8.0
2017-Oct-17 02:31N 46°11' W 123°52'0 0.0
2017-Oct-17 02:00N 46°11' W 123°52'0 0.0
2017-Oct-17 01:31N 46°11' W 123°52'0 0.0
2017-Oct-17 01:01N 46°11' W 123°52'0 0.0
2017-Oct-17 00:30N 46°11' W 123°52'0 0.0
2017-Oct-17 00:01N 46°11' W 123°52'0 0.0
2017-Oct-16 23:31N 46°11' W 123°52'0 0.0
2017-Oct-16 23:01N 46°11' W 123°52'0 0.0
2017-Oct-16 22:30N 46°11' W 123°52'0 0.0
2017-Oct-16 22:01N 46°11' W 123°52'0 0.0
2017-Oct-16 21:31N 46°11' W 123°52'0 0.0
2017-Oct-16 21:01N 46°11' W 123°52'0 0.1
2017-Oct-16 20:31N 46°11' W 123°52'0 0.0
2017-Oct-16 20:00N 46°11' W 123°52'0 0.0
2017-Oct-16 19:30N 46°11' W 123°52'1 2.2
2017-Oct-16 19:01N 46°12' W 123°50'0 0.0
2017-Oct-16 18:31N 46°12' W 123°50'4 7.1
2017-Oct-16 18:01N 46°12' W 123°55'510.5
2017-Oct-16 17:31N 46°15' W 124°01'4 8.8
2017-Oct-16 17:01N 46°13' W 124°06'5 9.2
2017-Oct-16 16:31N 46°08' W 124°07'4 8.8
2017-Oct-16 16:01N 46°04' W 124°07'4 8.6
2017-Oct-16 15:31N 45°60' W 124°08'4 8.6
2017-Oct-16 15:01N 45°55' W 124°08'8 8.4
2017-Oct-16 14:00N 45°47' W 124°09'4 8.2
2017-Oct-16 13:31N 45°43' W 124°10'4 8.0
2017-Oct-16 13:01N 45°39' W 124°10'4 8.3
2017-Oct-16 12:31N 45°35' W 124°10'4 8.6
2017-Oct-16 12:00N 45°30' W 124°11'4 8.8
2017-Oct-16 11:31N 45°26' W 124°11'4 8.7
2017-Oct-16 11:01N 45°22' W 124°11'4 8.7
2017-Oct-16 10:30N 45°17' W 124°12'4 8.8
2017-Oct-16 10:00N 45°13' W 124°12'4 8.6
2017-Oct-16 09:31N 45°09' W 124°12'4 8.4
2017-Oct-16 09:00N 45°04' W 124°13'4 8.2
2017-Oct-16 08:30N 45°00' W 124°13'56 8.0
2017-Oct-16 01:26N 44°06' W 124°37'3 8.3
2017-Oct-16 01:01N 44°03' W 124°39'5 8.5
2017-Oct-16 00:28N 43°59' W 124°41'8 3.0
2017-Oct-15 21:39N 43°52' W 124°48'1 6.4
2017-Oct-15 21:31N 43°52' W 124°49'0 0.9
2017-Oct-15 21:00N 43°52' W 124°49'1 2.2
2017-Oct-15 20:29N 43°52' W 124°51'64 5.0
2017-Oct-15 07:45N 44°56' W 124°38'310.1
2017-Oct-15 07:28N 44°58' W 124°37'510.1
2017-Oct-15 06:59N 45°03' W 124°35'510.2
2017-Oct-15 06:30N 45°08' W 124°33'5 9.8
2017-Oct-15 06:00N 45°13' W 124°32'510.6
2017-Oct-15 05:30N 45°18' W 124°30'510.9
2017-Oct-15 05:00N 45°23' W 124°28'611.1
2017-Oct-15 04:31N 45°28' W 124°25'610.9
2017-Oct-15 04:00N 45°34' W 124°23'510.7
2017-Oct-15 03:31N 45°39' W 124°21'510.7
2017-Oct-15 03:01N 45°44' W 124°19'510.4
2017-Oct-15 02:30N 45°49' W 124°17'8 9.9
2017-Oct-15 01:41N 45°57' W 124°14'310.0
2017-Oct-15 01:20N 46°00' W 124°12'3 9.8
2017-Oct-15 01:01N 46°03' W 124°11'5 9.4
2017-Oct-15 00:31N 46°08' W 124°09'5 9.2
2017-Oct-15 00:01N 46°12' W 124°07'4 8.9
2017-Oct-14 23:31N 46°15' W 124°03'711.1
2017-Oct-14 22:53N 46°11' W 123°55'2 5.0
2017-Oct-14 22:31N 46°11' W 123°52'0 0.0
2017-Oct-14 22:00N 46°11' W 123°52'0 0.0
2017-Oct-14 21:31N 46°11' W 123°52'0 0.0
2017-Oct-14 21:00N 46°11' W 123°52'0 0.0
2017-Oct-14 20:30N 46°11' W 123°52'0 0.0
2017-Oct-14 20:01N 46°11' W 123°52'0 0.0
2017-Oct-14 19:31N 46°11' W 123°52'0 0.0
2017-Oct-14 19:01N 46°11' W 123°52'0 0.0
2017-Oct-14 18:30N 46°11' W 123°52'0 0.0
2017-Oct-14 18:00N 46°11' W 123°52'0 0.0
2017-Oct-14 17:30N 46°11' W 123°52'1 2.3
2017-Oct-14 17:00N 46°11' W 123°54'5 9.4
2017-Oct-14 16:31N 46°14' W 123°59'5 9.1
2017-Oct-14 16:01N 46°15' W 124°06'814.9
2017-Oct-14 15:30N 46°07' W 124°08'1 2.9
2017-Oct-14 15:01N 46°06' W 124°08'4 8.6
2017-Oct-14 14:31N 46°02' W 124°09'4 8.7
2017-Oct-14 14:01N 45°57' W 124°09'4 8.6
2017-Oct-14 13:31N 45°53' W 124°10'4 8.5
2017-Oct-14 13:01N 45°49' W 124°11'4 8.7
2017-Oct-14 12:31N 45°44' W 124°12'4 8.7
2017-Oct-14 12:01N 45°40' W 124°13'4 8.6
2017-Oct-14 11:30N 45°36' W 124°13'4 8.5
2017-Oct-14 11:00N 45°32' W 124°14'4 8.7
2017-Oct-14 10:31N 45°27' W 124°14'5 9.0
2017-Oct-14 10:00N 45°23' W 124°15'4 9.0
2017-Oct-14 09:30N 45°18' W 124°16'4 8.8
2017-Oct-14 09:01N 45°14' W 124°17'4 8.5
2017-Oct-14 08:30N 45°10' W 124°18'4 8.3
2017-Oct-14 08:00N 45°06' W 124°20'13 0.5
2017-Oct-13 04:20N 45°16' W 124°32'2 7.4
2017-Oct-13 04:00N 45°18' W 124°31'4 7.4
2017-Oct-13 03:30N 45°22' W 124°30'4 7.6
2017-Oct-13 03:00N 45°26' W 124°29'5 7.8
2017-Oct-13 02:21N 45°30' W 124°27'3 7.7
2017-Oct-13 02:01N 45°33' W 124°26'4 7.8
2017-Oct-13 01:31N 45°37' W 124°24'4 7.8
2017-Oct-13 01:00N 45°40' W 124°22'4 7.5
2017-Oct-13 00:31N 45°44' W 124°21'4 7.3
2017-Oct-13 00:01N 45°48' W 124°19'4 7.3
2017-Oct-12 23:31N 45°51' W 124°18'4 7.6
2017-Oct-12 23:00N 45°55' W 124°16'4 7.7
2017-Oct-12 22:31N 45°58' W 124°14'4 7.7
2017-Oct-12 22:01N 46°02' W 124°12'4 7.8
2017-Oct-12 21:31N 46°06' W 124°10'4 7.6
2017-Oct-12 21:01N 46°09' W 124°09'4 7.0
2017-Oct-12 20:31N 46°13' W 124°07'3 6.8
2017-Oct-12 20:01N 46°15' W 124°04'4 8.2
2017-Oct-12 19:31N 46°14' W 123°59'4 9.0
2017-Oct-12 19:01N 46°11' W 123°53'2 4.2
2017-Oct-12 18:31N 46°12' W 123°50'0 0.0
2017-Oct-12 18:00N 46°12' W 123°50'0 0.0
2017-Oct-12 17:30N 46°12' W 123°50'1 1.8
2017-Oct-12 16:56N 46°11' W 123°52'0 0.0
2017-Oct-12 16:31N 46°11' W 123°52'0 0.9
2017-Oct-12 16:01N 46°11' W 123°52'0 0.8
2017-Oct-12 15:31N 46°11' W 123°52'0 0.0
2017-Oct-12 15:01N 46°11' W 123°52'0 0.0
2017-Oct-12 14:31N 46°11' W 123°52'0 0.0
2017-Oct-12 13:52N 46°11' W 123°52'0 0.0
2017-Oct-12 13:30N 46°11' W 123°52'0 0.0
2017-Oct-12 12:55N 46°11' W 123°52'0 0.0
2017-Oct-12 12:30N 46°11' W 123°52'0 0.0
2017-Oct-12 11:53N 46°11' W 123°52'0 0.0
2017-Oct-12 11:31N 46°11' W 123°52'0 0.0
2017-Oct-12 10:57N 46°11' W 123°52'0 0.0
2017-Oct-12 10:31N 46°11' W 123°52'0 0.0
2017-Oct-12 09:51N 46°11' W 123°52'0 0.0
2017-Oct-12 09:31N 46°11' W 123°52'0 0.0
2017-Oct-12 08:56N 46°11' W 123°52'0 0.0
2017-Oct-12 08:30N 46°11' W 123°52'0 0.0
2017-Oct-12 07:43N 46°11' W 123°52'0 0.0
2017-Oct-12 07:30N 46°11' W 123°52'0 0.0
2017-Oct-12 07:00N 46°11' W 123°52'0 0.0
2017-Oct-12 06:30N 46°11' W 123°52'0 0.0
2017-Oct-12 06:01N 46°11' W 123°52'0 0.0
2017-Oct-12 05:26N 46°11' W 123°52'0 0.0
2017-Oct-12 05:01N 46°11' W 123°52'0 0.0
2017-Oct-12 04:31N 46°11' W 123°52'0 0.0
2017-Oct-12 04:01N 46°11' W 123°52'0 0.0
2017-Oct-12 03:31N 46°11' W 123°52'0 0.0
2017-Oct-12 03:01N 46°11' W 123°52'0 0.0
2017-Oct-12 02:31N 46°11' W 123°52'0 0.0
2017-Oct-12 02:01N 46°11' W 123°52'0 0.0
2017-Oct-12 01:31N 46°11' W 123°52'0 0.0
2017-Oct-12 01:01N 46°11' W 123°52'0 0.0
2017-Oct-12 00:31N 46°11' W 123°52'0 0.0
2017-Oct-11 23:50N 46°11' W 123°52'0 0.0
2017-Oct-11 23:31N 46°11' W 123°52'0 0.0
2017-Oct-11 23:01N 46°11' W 123°52'0 0.0
2017-Oct-11 22:20N 46°11' W 123°52'0 0.0
2017-Oct-11 21:58N 46°11' W 123°52'0 0.0
2017-Oct-11 21:31N 46°11' W 123°52'0 0.0
2017-Oct-11 21:01N 46°11' W 123°52'0 0.0
2017-Oct-11 20:31N 46°11' W 123°52'0 0.0
2017-Oct-11 20:01N 46°11' W 123°52'2 4.8
2017-Oct-11 19:30N 46°12' W 123°55'4 7.6
2017-Oct-11 19:00N 46°14' W 123°60'3 5.9
2017-Oct-11 18:31N 46°15' W 124°03'3 5.1
2017-Oct-11 18:01N 46°14' W 124°06'3 6.6
2017-Oct-11 17:31N 46°11' W 124°08'3 6.2
2017-Oct-11 17:01N 46°08' W 124°09'68 2.3
2017-Oct-10 11:18N 45°02' W 124°33'1 2.1
2017-Oct-10 10:58N 45°03' W 124°32'510.0
2017-Oct-10 10:30N 45°07' W 124°31'510.2
2017-Oct-10 10:00N 45°12' W 124°30'710.0
2017-Oct-10 09:18N 45°19' W 124°28'410.0
2017-Oct-10 08:51N 45°23' W 124°27'3 9.9
2017-Oct-10 08:31N 45°27' W 124°26'5 9.9
2017-Oct-10 08:00N 45°32' W 124°25'510.0
2017-Oct-10 07:31N 45°37' W 124°24'5 9.9
2017-Oct-10 07:00N 45°41' W 124°22'510.1
2017-Oct-10 06:30N 45°46' W 124°20'610.3
2017-Oct-10 05:56N 45°52' W 124°17'410.3
2017-Oct-10 05:31N 45°56' W 124°15'510.4
2017-Oct-10 05:01N 46°01' W 124°13'510.4
2017-Oct-10 04:30N 46°06' W 124°11'710.5
2017-Oct-10 03:51N 46°12' W 124°08'410.7
2017-Oct-10 03:30N 46°15' W 124°04'813.5
2017-Oct-10 02:56N 46°11' W 123°54'2 4.6
2017-Oct-10 02:31N 46°11' W 123°52'0 0.0
2017-Oct-10 02:01N 46°11' W 123°52'0 0.2
2017-Oct-10 01:11N 46°11' W 123°52'0 0.0
2017-Oct-10 01:00N 46°11' W 123°52'0 0.0
2017-Oct-10 00:30N 46°11' W 123°52'0 0.0
2017-Oct-10 00:01N 46°11' W 123°52'0 0.0
2017-Oct-09 23:30N 46°11' W 123°52'0 0.0
2017-Oct-09 23:00N 46°11' W 123°52'0 0.0
2017-Oct-09 22:31N 46°11' W 123°52'0 0.0
2017-Oct-09 22:01N 46°11' W 123°52'0 0.0
2017-Oct-09 21:30N 46°11' W 123°52'0 0.0
2017-Oct-09 21:00N 46°11' W 123°52'0 0.1
2017-Oct-09 20:30N 46°11' W 123°52'0 0.0
2017-Oct-09 20:00N 46°11' W 123°52'0 0.0
2017-Oct-09 19:30N 46°11' W 123°52'0 0.0
2017-Oct-09 19:00N 46°11' W 123°52'1 2.3
2017-Oct-09 18:30N 46°11' W 123°53'4 7.3
2017-Oct-09 18:01N 46°13' W 123°58'4 7.5
2017-Oct-09 17:30N 46°15' W 124°03'3 6.7
2017-Oct-09 17:00N 46°13' W 124°06'4 9.0
2017-Oct-09 16:31N 46°09' W 124°08'4 8.7
2017-Oct-09 16:01N 46°05' W 124°10'4 8.9
2017-Oct-09 15:30N 46°00' W 124°12'4 8.5
2017-Oct-09 15:00N 45°56' W 124°14'4 8.3
2017-Oct-09 14:30N 45°53' W 124°16'4 8.1
2017-Oct-09 14:00N 45°49' W 124°19'4 8.2
2017-Oct-09 13:30N 45°45' W 124°20'4 8.1
2017-Oct-09 13:00N 45°41' W 124°22'4 7.9
2017-Oct-09 12:30N 45°37' W 124°24'4 8.1
2017-Oct-09 12:00N 45°33' W 124°25'4 8.0
2017-Oct-09 11:30N 45°29' W 124°26'4 8.0
2017-Oct-09 10:59N 45°25' W 124°27'6 8.3
2017-Oct-09 10:13N 45°19' W 124°29'2 8.1
2017-Oct-09 10:00N 45°17' W 124°30'4 8.0
2017-Oct-09 09:30N 45°14' W 124°31'4 7.9
2017-Oct-09 09:01N 45°10' W 124°33'4 8.1
2017-Oct-09 08:30N 45°06' W 124°35'4 8.0
2017-Oct-09 08:00N 45°02' W 124°36'4 7.9
2017-Oct-09 07:30N 44°58' W 124°38'4 7.9
2017-Oct-09 06:59N 44°54' W 124°40'4 7.8
2017-Oct-09 06:30N 44°51' W 124°42'4 7.7
2017-Oct-09 05:59N 44°47' W 124°43'4 7.5
2017-Oct-09 05:30N 44°44' W 124°45'7 7.3
2017-Oct-09 04:35N 44°37' W 124°47'2 7.2
2017-Oct-09 04:21N 44°36' W 124°48'37 2.0
2017-Oct-08 10:18N 45°10' W 124°29'718.5
2017-Oct-08 09:57N 45°16' W 124°28'1 3.1
2017-Oct-08 09:30N 45°17' W 124°27'5 9.8
2017-Oct-08 09:00N 45°22' W 124°27'710.0
2017-Oct-08 08:20N 45°29' W 124°25'310.2
2017-Oct-08 08:01N 45°32' W 124°24'510.1
2017-Oct-08 07:30N 45°37' W 124°22'5 9.9
2017-Oct-08 07:00N 45°42' W 124°20'510.1
2017-Oct-08 06:30N 45°47' W 124°18'510.1
2017-Oct-08 06:00N 45°52' W 124°17'510.0
2017-Oct-08 05:30N 45°56' W 124°15'510.1
2017-Oct-08 05:00N 46°01' W 124°12'510.0
2017-Oct-08 04:30N 46°06' W 124°10'1 2.0
2017-Oct-08 04:00N 46°07' W 124°10'3 4.1
2017-Oct-08 03:20N 46°10' W 124°09'3 9.4
2017-Oct-08 03:00N 46°13' W 124°08'510.6
2017-Oct-08 02:30N 46°15' W 124°01'714.2
2017-Oct-08 02:00N 46°11' W 123°53'1 1.3
2017-Oct-08 01:30N 46°11' W 123°52'0 0.0
2017-Oct-08 00:58N 46°11' W 123°52'0 0.0
2017-Oct-08 00:30N 46°11' W 123°52'0 0.0
2017-Oct-08 00:00N 46°11' W 123°52'0 0.0
2017-Oct-07 23:31N 46°11' W 123°52'0 0.0
2017-Oct-07 23:00N 46°11' W 123°52'0 0.0
2017-Oct-07 22:31N 46°11' W 123°52'0 0.0
2017-Oct-07 22:00N 46°11' W 123°52'0 0.0
2017-Oct-07 21:31N 46°11' W 123°52'0 0.0
2017-Oct-07 21:00N 46°11' W 123°52'0 0.0
2017-Oct-07 20:30N 46°11' W 123°52'0 0.0
2017-Oct-07 20:00N 46°11' W 123°52'0 0.0
2017-Oct-07 19:30N 46°11' W 123°52'0 0.0
2017-Oct-07 19:00N 46°11' W 123°52'0 0.0
2017-Oct-07 18:30N 46°11' W 123°52'0 0.0
2017-Oct-07 18:00N 46°11' W 123°52'0 0.0
2017-Oct-07 17:30N 46°11' W 123°52'9 7.4
2017-Oct-07 16:21N 46°15' W 124°03'3 6.9
2017-Oct-07 15:59N 46°14' W 124°06'4 9.2
2017-Oct-07 15:30N 46°10' W 124°08'5 9.0
2017-Oct-07 15:00N 46°05' W 124°10'4 8.9
2017-Oct-07 14:30N 46°01' W 124°12'5 8.6
2017-Oct-07 13:58N 45°57' W 124°13'4 8.5
2017-Oct-07 13:30N 45°53' W 124°14'4 8.2
2017-Oct-07 13:00N 45°49' W 124°15'  

Dump ship's entire track history